createdAt,value
2024-03-16T00:00:09.185Z,23.15
2024-03-16T00:02:35.844Z,22.48
2024-03-16T00:05:02.512Z,31.90
2024-03-16T00:07:29.198Z,29.20
2024-03-16T00:09:56.268Z,35.20
2024-03-16T00:12:25.820Z,31.60
2024-03-16T00:14:52.520Z,30.95
2024-03-16T00:17:20.600Z,34.25
2024-03-16T00:19:47.258Z,32.10
2024-03-16T00:22:14.014Z,32.17
2024-03-16T00:24:40.721Z,27.75
2024-03-16T00:27:08.689Z,34.85
2024-03-16T00:29:35.409Z,33.55
2024-03-16T00:32:02.634Z,30.92
2024-03-16T00:34:29.388Z,29.58
2024-03-16T00:36:56.095Z,28.45
2024-03-16T00:39:25.005Z,33.55
2024-03-16T00:41:51.876Z,35.80
2024-03-16T00:44:19.420Z,28.67
2024-03-16T00:46:46.753Z,30.53
2024-03-16T00:49:13.536Z,30.55
2024-03-16T00:51:42.285Z,26.00
2024-03-16T00:54:12.358Z,19.95
2024-03-16T00:56:39.932Z,25.77
2024-03-16T00:59:06.785Z,20.35
2024-03-16T01:01:36.293Z,23.48
2024-03-16T01:04:03.860Z,25.85
2024-03-16T01:06:30.745Z,29.47
2024-03-16T01:08:57.678Z,29.60
2024-03-16T01:11:27.877Z,32.83
2024-03-16T01:13:54.751Z,30.25
2024-03-16T01:16:21.571Z,35.72
2024-03-16T01:18:48.883Z,34.70
2024-03-16T01:21:16.348Z,34.33
2024-03-16T01:23:42.990Z,36.17
2024-03-16T01:26:10.772Z,34.85
2024-03-16T01:28:37.460Z,35.10
2024-03-16T01:31:05.228Z,34.30
2024-03-16T01:33:31.998Z,30.30
2024-03-16T01:35:58.713Z,29.02
2024-03-16T01:38:25.452Z,26.25
2024-03-16T01:40:52.131Z,36.13
2024-03-16T01:43:18.764Z,32.90
2024-03-16T01:45:46.941Z,37.00
2024-03-16T01:48:13.896Z,28.63
2024-03-16T01:50:42.504Z,27.20
2024-03-16T01:55:37.736Z,28.17
2024-03-16T01:58:08.406Z,28.65
2024-03-16T02:00:35.798Z,24.63
2024-03-16T02:03:03.382Z,28.50
2024-03-16T02:05:30.413Z,31.08
2024-03-16T02:07:57.124Z,25.90
2024-03-16T02:10:23.770Z,26.17
2024-03-16T02:12:50.498Z,28.38
2024-03-16T02:15:17.414Z,26.30
2024-03-16T02:17:47.256Z,24.60
2024-03-16T02:20:17.274Z,26.33
2024-03-16T02:22:44.302Z,23.45
2024-03-16T02:25:12.122Z,28.27
2024-03-16T02:27:41.598Z,21.23
2024-03-16T02:30:12.024Z,21.95
2024-03-16T02:32:38.818Z,28.08
2024-03-16T02:35:08.952Z,23.70
2024-03-16T02:37:35.884Z,21.60
2024-03-16T02:40:05.208Z,23.92
2024-03-16T02:42:31.993Z,26.95
2024-03-16T02:44:58.697Z,21.55
2024-03-16T02:47:25.577Z,21.88
2024-03-16T02:49:53.684Z,22.15
2024-03-16T02:52:20.374Z,23.38
2024-03-16T02:54:47.073Z,18.63
2024-03-16T02:57:13.728Z,18.15
2024-03-16T02:59:41.433Z,22.30
2024-03-16T03:02:08.134Z,17.80
2024-03-16T03:04:35.458Z,22.48
2024-03-16T03:07:02.741Z,18.98
2024-03-16T03:09:30.608Z,18.73
2024-03-16T03:11:57.333Z,23.65
2024-03-16T03:14:23.954Z,20.75
2024-03-16T03:16:50.590Z,19.80
2024-03-16T03:19:17.345Z,25.52
2024-03-16T03:21:44.060Z,21.75
2024-03-16T03:24:10.764Z,21.58
2024-03-16T03:26:37.412Z,21.77
2024-03-16T03:29:04.071Z,17.30
2024-03-16T03:31:30.888Z,20.40
2024-03-16T03:33:57.630Z,19.05
2024-03-16T03:36:24.257Z,22.13
2024-03-16T03:38:50.923Z,20.15
2024-03-16T03:41:19.704Z,23.73
2024-03-16T03:43:48.709Z,21.35
2024-03-16T03:46:35.775Z,23.40
2024-03-16T03:49:12.457Z,24.65
2024-03-16T03:51:39.987Z,22.42
2024-03-16T03:54:07.765Z,27.60
2024-03-16T03:56:35.736Z,22.55
2024-03-16T03:59:03.481Z,22.50
2024-03-16T04:01:30.246Z,21.67
2024-03-16T04:03:57.351Z,22.92
2024-03-16T04:06:26.174Z,23.38
2024-03-16T04:08:52.821Z,24.52
2024-03-16T04:11:19.530Z,30.88
2024-03-16T04:13:46.195Z,30.38
2024-03-16T04:16:15.767Z,27.00
2024-03-16T04:18:43.014Z,29.05
2024-03-16T04:21:09.828Z,31.73
2024-03-16T04:23:36.516Z,22.75
2024-03-16T04:26:04.087Z,32.03
2024-03-16T04:28:30.765Z,32.07
2024-03-16T04:30:57.472Z,30.58
2024-03-16T04:33:24.130Z,30.98
2024-03-16T04:35:50.730Z,30.23
2024-03-16T04:38:18.685Z,28.33
2024-03-16T04:40:45.387Z,27.65
2024-03-16T04:43:12.337Z,34.10
2024-03-16T04:45:39.071Z,23.52
2024-03-16T04:48:05.929Z,25.35
2024-03-16T04:50:32.629Z,27.45
2024-03-16T04:52:59.324Z,25.75
2024-03-16T04:55:26.029Z,28.00
2024-03-16T04:57:52.667Z,27.75
2024-03-16T05:00:19.454Z,26.70
2024-03-16T05:02:46.126Z,23.27
2024-03-16T05:05:12.817Z,26.15
2024-03-16T05:07:39.522Z,28.90
2024-03-16T05:10:06.562Z,31.40
2024-03-16T05:12:33.231Z,33.35
2024-03-16T05:14:59.965Z,28.92
2024-03-16T05:17:27.204Z,33.85
2024-03-16T05:19:54.154Z,32.38
2024-03-16T05:22:20.877Z,34.55
2024-03-16T05:24:47.587Z,30.90
2024-03-16T05:27:16.317Z,33.53
2024-03-16T05:29:43.417Z,39.22
2024-03-16T05:32:10.205Z,30.45
2024-03-16T05:34:36.867Z,32.30
2024-03-16T05:37:03.699Z,31.50
2024-03-16T05:39:30.411Z,29.70
2024-03-16T05:41:57.334Z,29.60
2024-03-16T05:44:23.965Z,31.25
2024-03-16T05:46:50.593Z,31.25
2024-03-16T05:49:17.321Z,28.50
2024-03-16T05:51:44.532Z,31.80
2024-03-16T05:54:11.198Z,34.03
2024-03-16T05:56:38.654Z,27.05
2024-03-16T05:59:05.351Z,26.13
2024-03-16T06:01:32.102Z,29.27
2024-03-16T06:03:58.825Z,28.25
2024-03-16T06:06:25.972Z,28.55
2024-03-16T06:08:52.661Z,28.23
2024-03-16T06:11:19.319Z,25.73
2024-03-16T06:13:46.526Z,22.17
2024-03-16T06:16:13.375Z,21.23
2024-03-16T06:18:44.240Z,17.85
2024-03-16T06:21:12.065Z,20.30
2024-03-16T06:23:39.165Z,11.27
2024-03-16T06:26:07.429Z,8.60
2024-03-16T06:28:39.235Z,7.55
2024-03-16T06:31:12.456Z,8.52
2024-03-16T06:33:46.436Z,7.75
2024-03-16T06:36:13.276Z,7.60
2024-03-16T06:38:39.996Z,6.57
2024-03-16T06:41:06.628Z,6.35
2024-03-16T06:43:33.773Z,5.82
2024-03-16T06:46:02.154Z,8.85
2024-03-16T06:48:29.124Z,4.88
2024-03-16T06:50:55.796Z,4.88
2024-03-16T06:53:23.113Z,5.28
2024-03-16T06:55:52.699Z,6.45
2024-03-16T06:58:19.386Z,3.83
2024-03-16T07:00:46.186Z,4.95
2024-03-16T07:03:15.345Z,5.78
2024-03-16T07:05:42.118Z,5.78
2024-03-16T07:08:11.946Z,4.97
2024-03-16T07:10:39.369Z,5.30
2024-03-16T07:13:07.027Z,4.97
2024-03-16T07:15:34.169Z,2.88
2024-03-16T07:18:00.922Z,5.05
2024-03-16T07:20:27.576Z,4.53
2024-03-16T07:22:55.457Z,3.60
2024-03-16T07:25:22.248Z,4.35
2024-03-16T07:27:49.322Z,6.50
2024-03-16T07:30:18.371Z,3.83
2024-03-16T07:32:45.087Z,6.65
2024-03-16T07:35:12.549Z,2.90
2024-03-16T07:37:39.232Z,2.78
2024-03-16T07:40:07.646Z,5.22
2024-03-16T07:45:01.080Z,5.93
2024-03-16T07:47:27.717Z,3.30
2024-03-16T07:49:54.386Z,5.88
2024-03-16T07:52:21.101Z,5.72
2024-03-16T07:54:47.762Z,2.08
2024-03-16T07:57:14.420Z,5.40
2024-03-16T07:59:41.072Z,3.10
2024-03-16T08:02:07.869Z,3.92
2024-03-16T08:04:36.198Z,4.40
2024-03-16T08:07:04.239Z,5.85
2024-03-16T08:09:31.826Z,3.00
2024-03-16T08:11:58.570Z,4.57
2024-03-16T08:14:25.836Z,5.45
2024-03-16T08:16:53.009Z,4.82
2024-03-16T08:19:20.871Z,4.95
2024-03-16T08:21:50.125Z,5.60
2024-03-16T08:24:17.552Z,6.18
2024-03-16T08:26:44.914Z,6.70
2024-03-16T08:29:12.346Z,4.45
2024-03-16T08:31:39.078Z,9.57
2024-03-16T08:34:05.901Z,8.20
2024-03-16T08:36:32.713Z,4.65
2024-03-16T08:38:59.529Z,7.45
2024-03-16T08:41:26.182Z,5.97
2024-03-16T08:43:52.854Z,9.02
2024-03-16T08:46:19.600Z,8.38
2024-03-16T08:48:48.206Z,6.25
2024-03-16T08:53:41.456Z,6.45
2024-03-16T08:56:08.351Z,11.18
2024-03-16T08:58:35.207Z,8.45
2024-03-16T09:01:02.722Z,12.30
2024-03-16T09:03:29.484Z,9.30
2024-03-16T09:05:56.159Z,9.75
2024-03-16T09:08:22.828Z,12.07
2024-03-16T09:10:49.460Z,9.13
2024-03-16T09:13:16.218Z,10.32
2024-03-16T09:15:42.935Z,13.65
2024-03-16T09:18:10.759Z,10.70
2024-03-16T09:20:41.337Z,6.15
2024-03-16T09:23:09.645Z,13.27
2024-03-16T09:25:37.809Z,8.65
2024-03-16T09:28:04.732Z,10.85
2024-03-16T09:30:33.549Z,8.98
2024-03-16T09:33:00.714Z,5.78
2024-03-16T09:35:27.571Z,9.57
2024-03-16T09:37:54.246Z,9.23
2024-03-16T09:40:21.124Z,7.90
